sensor_id;sensor_type;location;lat;lon;timestamp;P1;durP1;ratioP1;P2;durP2;ratioP2
78402;SDS011;67687;43.508;1.504;2023-07-02T00:09:20;12.77;;;7.15;;
78402;SDS011;67687;43.508;1.504;2023-07-02T00:37:18;14.77;;;8.07;;
78402;SDS011;67687;43.508;1.504;2023-07-02T00:48:45;15.23;;;8.15;;
78402;SDS011;67687;43.508;1.504;2023-07-02T03:10:04;19.02;;;9.63;;
78402;SDS011;67687;43.508;1.504;2023-07-02T03:20:08;18.27;;;9.83;;
78402;SDS011;67687;43.508;1.504;2023-07-02T03:23:39;16.95;;;9.02;;
78402;SDS011;67687;43.508;1.504;2023-07-02T03:30:14;19.02;;;9.50;;
78402;SDS011;67687;43.508;1.504;2023-07-02T03:32:49;14.98;;;9.40;;
78402;SDS011;67687;43.508;1.504;2023-07-02T03:39:01;16.33;;;9.15;;
78402;SDS011;67687;43.508;1.504;2023-07-02T03:42:14;17.92;;;9.18;;
78402;SDS011;67687;43.508;1.504;2023-07-02T03:52:08;15.37;;;8.90;;
78402;SDS011;67687;43.508;1.504;2023-07-02T03:55:41;15.77;;;8.27;;
78402;SDS011;67687;43.508;1.504;2023-07-02T03:58:27;15.25;;;9.00;;
78402;SDS011;67687;43.508;1.504;2023-07-02T04:01:25;18.20;;;9.80;;
78402;SDS011;67687;43.508;1.504;2023-07-02T04:04:58;15.77;;;9.32;;
78402;SDS011;67687;43.508;1.504;2023-07-02T04:22:07;17.33;;;9.00;;
78402;SDS011;67687;43.508;1.504;2023-07-02T04:25:28;15.53;;;8.87;;
78402;SDS011;67687;43.508;1.504;2023-07-02T04:28:31;14.15;;;8.95;;
78402;SDS011;67687;43.508;1.504;2023-07-02T04:36:52;14.50;;;8.40;;
78402;SDS011;67687;43.508;1.504;2023-07-02T04:39:45;15.27;;;8.40;;
78402;SDS011;67687;43.508;1.504;2023-07-02T04:54:27;13.77;;;8.07;;
78402;SDS011;67687;43.508;1.504;2023-07-02T06:02:53;9.38;;;4.70;;
78402;SDS011;67687;43.508;1.504;2023-07-02T06:40:11;7.25;;;4.50;;
78402;SDS011;67687;43.508;1.504;2023-07-02T06:42:43;8.57;;;4.50;;
78402;SDS011;67687;43.508;1.504;2023-07-02T06:45:47;8.48;;;4.68;;
78402;SDS011;67687;43.508;1.504;2023-07-02T06:48:47;8.15;;;4.68;;
78402;SDS011;67687;43.508;1.504;2023-07-02T06:59:30;9.77;;;3.85;;
78402;SDS011;67687;43.508;1.504;2023-07-02T07:58:56;5.30;;;2.72;;
78402;SDS011;67687;43.508;1.504;2023-07-02T08:04:25;5.38;;;2.92;;
78402;SDS011;67687;43.508;1.504;2023-07-02T08:06:52;5.55;;;3.08;;
78402;SDS011;67687;43.508;1.504;2023-07-02T08:09:19;5.23;;;2.63;;
78402;SDS011;67687;43.508;1.504;2023-07-02T08:11:46;4.70;;;2.63;;
78402;SDS011;67687;43.508;1.504;2023-07-02T08:14:14;5.13;;;2.78;;
78402;SDS011;67687;43.508;1.504;2023-07-02T08:16:42;5.47;;;2.83;;
78402;SDS011;67687;43.508;1.504;2023-07-02T08:19:10;7.00;;;3.05;;
78402;SDS011;67687;43.508;1.504;2023-07-02T08:21:36;6.33;;;2.77;;
78402;SDS011;67687;43.508;1.504;2023-07-02T08:24:03;4.97;;;2.38;;
78402;SDS011;67687;43.508;1.504;2023-07-02T08:26:31;4.50;;;2.83;;
78402;SDS011;67687;43.508;1.504;2023-07-02T08:28:58;5.88;;;2.70;;
78402;SDS011;67687;43.508;1.504;2023-07-02T08:31:26;6.15;;;3.00;;
78402;SDS011;67687;43.508;1.504;2023-07-02T08:33:53;5.60;;;2.80;;
78402;SDS011;67687;43.508;1.504;2023-07-02T08:36:19;5.63;;;3.10;;
78402;SDS011;67687;43.508;1.504;2023-07-02T08:38:46;5.25;;;3.10;;
78402;SDS011;67687;43.508;1.504;2023-07-02T08:41:13;5.25;;;3.00;;
78402;SDS011;67687;43.508;1.504;2023-07-02T08:43:39;6.53;;;2.90;;
78402;SDS011;67687;43.508;1.504;2023-07-02T08:46:06;6.23;;;3.40;;
78402;SDS011;67687;43.508;1.504;2023-07-02T09:08:23;5.38;;;2.75;;
78402;SDS011;67687;43.508;1.504;2023-07-02T09:10:50;5.53;;;2.60;;
78402;SDS011;67687;43.508;1.504;2023-07-02T09:13:17;4.87;;;2.50;;
78402;SDS011;67687;43.508;1.504;2023-07-02T09:15:44;5.38;;;2.67;;
78402;SDS011;67687;43.508;1.504;2023-07-02T09:18:15;4.78;;;2.30;;
78402;SDS011;67687;43.508;1.504;2023-07-02T09:20:42;4.35;;;2.08;;
78402;SDS011;67687;43.508;1.504;2023-07-02T09:23:09;4.68;;;1.80;;
78402;SDS011;67687;43.508;1.504;2023-07-02T09:25:37;4.57;;;2.00;;
78402;SDS011;67687;43.508;1.504;2023-07-02T09:28:13;3.55;;;1.80;;
78402;SDS011;67687;43.508;1.504;2023-07-02T09:30:48;3.80;;;1.98;;
78402;SDS011;67687;43.508;1.504;2023-07-02T09:33:16;3.80;;;1.45;;
78402;SDS011;67687;43.508;1.504;2023-07-02T09:35:43;4.25;;;1.98;;
78402;SDS011;67687;43.508;1.504;2023-07-02T09:38:10;4.13;;;1.87;;
78402;SDS011;67687;43.508;1.504;2023-07-02T09:40:46;4.30;;;1.50;;
78402;SDS011;67687;43.508;1.504;2023-07-02T09:43:14;2.90;;;1.23;;
78402;SDS011;67687;43.508;1.504;2023-07-02T09:45:42;3.72;;;0.93;;
78402;SDS011;67687;43.508;1.504;2023-07-02T09:48:10;2.50;;;0.90;;
78402;SDS011;67687;43.508;1.504;2023-07-02T09:50:39;3.00;;;0.90;;
78402;SDS011;67687;43.508;1.504;2023-07-02T09:53:06;2.50;;;0.80;;
78402;SDS011;67687;43.508;1.504;2023-07-02T09:55:33;3.45;;;0.80;;
78402;SDS011;67687;43.508;1.504;2023-07-02T09:58:01;2.83;;;0.90;;
78402;SDS011;67687;43.508;1.504;2023-07-02T10:00:28;2.55;;;0.88;;
78402;SDS011;67687;43.508;1.504;2023-07-02T10:02:55;3.90;;;0.90;;
78402;SDS011;67687;43.508;1.504;2023-07-02T10:05:25;2.95;;;0.95;;
78402;SDS011;67687;43.508;1.504;2023-07-02T10:07:57;3.28;;;1.15;;
78402;SDS011;67687;43.508;1.504;2023-07-02T10:10:28;4.03;;;1.20;;
78402;SDS011;67687;43.508;1.504;2023-07-02T10:12:55;3.00;;;0.98;;
78402;SDS011;67687;43.508;1.504;2023-07-02T10:28:26;2.63;;;0.80;;
78402;SDS011;67687;43.508;1.504;2023-07-02T10:33:28;3.08;;;1.20;;
78402;SDS011;67687;43.508;1.504;2023-07-02T10:41:07;4.50;;;1.23;;
78402;SDS011;67687;43.508;1.504;2023-07-02T10:43:37;2.55;;;0.80;;
78402;SDS011;67687;43.508;1.504;2023-07-02T10:46:06;4.57;;;1.00;;
78402;SDS011;67687;43.508;1.504;2023-07-02T10:51:12;3.08;;;1.20;;
78402;SDS011;67687;43.508;1.504;2023-07-02T10:53:39;3.10;;;1.10;;
78402;SDS011;67687;43.508;1.504;2023-07-02T11:24:34;3.88;;;1.00;;
78402;SDS011;67687;43.508;1.504;2023-07-02T11:27:03;2.85;;;1.02;;
78402;SDS011;67687;43.508;1.504;2023-07-02T11:29:31;2.50;;;1.00;;
78402;SDS011;67687;43.508;1.504;2023-07-02T11:32:05;3.53;;;1.03;;
78402;SDS011;67687;43.508;1.504;2023-07-02T11:34:35;4.38;;;1.17;;
78402;SDS011;67687;43.508;1.504;2023-07-02T11:37:03;2.80;;;0.90;;
78402;SDS011;67687;43.508;1.504;2023-07-02T11:39:30;2.30;;;0.90;;
78402;SDS011;67687;43.508;1.504;2023-07-02T11:41:58;2.50;;;1.10;;
78402;SDS011;67687;43.508;1.504;2023-07-02T11:44:25;2.60;;;1.07;;
78402;SDS011;67687;43.508;1.504;2023-07-02T11:46:52;2.53;;;1.20;;
78402;SDS011;67687;43.508;1.504;2023-07-02T11:49:19;3.45;;;0.90;;
78402;SDS011;67687;43.508;1.504;2023-07-02T11:51:45;2.67;;;1.00;;
78402;SDS011;67687;43.508;1.504;2023-07-02T11:54:13;2.83;;;1.25;;
78402;SDS011;67687;43.508;1.504;2023-07-02T11:56:40;2.80;;;1.33;;
78402;SDS011;67687;43.508;1.504;2023-07-02T11:59:09;2.72;;;1.20;;
78402;SDS011;67687;43.508;1.504;2023-07-02T12:01:36;3.28;;;1.10;;
78402;SDS011;67687;43.508;1.504;2023-07-02T12:04:02;3.28;;;1.10;;
78402;SDS011;67687;43.508;1.504;2023-07-02T12:06:30;3.22;;;1.08;;
78402;SDS011;67687;43.508;1.504;2023-07-02T12:08:57;3.10;;;1.40;;
78402;SDS011;67687;43.508;1.504;2023-07-02T12:11:23;2.63;;;1.08;;
78402;SDS011;67687;43.508;1.504;2023-07-02T12:13:50;3.78;;;1.33;;
78402;SDS011;67687;43.508;1.504;2023-07-02T12:16:21;4.00;;;1.58;;
78402;SDS011;67687;43.508;1.504;2023-07-02T12:18:47;3.97;;;1.30;;
78402;SDS011;67687;43.508;1.504;2023-07-02T12:21:14;2.70;;;1.27;;
78402;SDS011;67687;43.508;1.504;2023-07-02T12:23:43;3.42;;;1.40;;
78402;SDS011;67687;43.508;1.504;2023-07-02T12:26:10;2.65;;;1.25;;
78402;SDS011;67687;43.508;1.504;2023-07-02T12:28:36;2.63;;;1.08;;
78402;SDS011;67687;43.508;1.504;2023-07-02T12:31:03;3.60;;;1.27;;
78402;SDS011;67687;43.508;1.504;2023-07-02T12:33:31;2.97;;;1.30;;
78402;SDS011;67687;43.508;1.504;2023-07-02T12:35:58;3.08;;;1.20;;
78402;SDS011;67687;43.508;1.504;2023-07-02T12:38:24;2.92;;;1.25;;
78402;SDS011;67687;43.508;1.504;2023-07-02T12:40:51;2.60;;;1.20;;
78402;SDS011;67687;43.508;1.504;2023-07-02T12:43:18;3.15;;;1.13;;
78402;SDS011;67687;43.508;1.504;2023-07-02T12:45:45;3.60;;;1.43;;
78402;SDS011;67687;43.508;1.504;2023-07-02T12:48:12;3.50;;;1.05;;
78402;SDS011;67687;43.508;1.504;2023-07-02T12:50:40;2.60;;;1.10;;
78402;SDS011;67687;43.508;1.504;2023-07-02T12:53:07;3.20;;;1.30;;
78402;SDS011;67687;43.508;1.504;2023-07-02T12:55:33;3.10;;;1.30;;
78402;SDS011;67687;43.508;1.504;2023-07-02T12:58:00;2.80;;;1.20;;
78402;SDS011;67687;43.508;1.504;2023-07-02T13:00:27;2.90;;;1.38;;
78402;SDS011;67687;43.508;1.504;2023-07-02T13:02:54;4.10;;;1.17;;
78402;SDS011;67687;43.508;1.504;2023-07-02T13:05:20;4.90;;;1.20;;
78402;SDS011;67687;43.508;1.504;2023-07-02T13:07:49;3.97;;;1.40;;
78402;SDS011;67687;43.508;1.504;2023-07-02T13:10:15;2.73;;;1.13;;
78402;SDS011;67687;43.508;1.504;2023-07-02T13:12:42;3.83;;;1.10;;
78402;SDS011;67687;43.508;1.504;2023-07-02T13:15:09;2.80;;;1.10;;
78402;SDS011;67687;43.508;1.504;2023-07-02T13:17:37;3.53;;;1.10;;
78402;SDS011;67687;43.508;1.504;2023-07-02T13:20:04;3.25;;;1.15;;
78402;SDS011;67687;43.508;1.504;2023-07-02T13:22:32;3.10;;;1.20;;
78402;SDS011;67687;43.508;1.504;2023-07-02T13:25:00;2.63;;;1.20;;
78402;SDS011;67687;43.508;1.504;2023-07-02T13:27:27;2.72;;;1.00;;
78402;SDS011;67687;43.508;1.504;2023-07-02T13:29:53;2.70;;;1.20;;
78402;SDS011;67687;43.508;1.504;2023-07-02T13:32:20;2.92;;;1.25;;
78402;SDS011;67687;43.508;1.504;2023-07-02T13:34:47;2.90;;;1.30;;
78402;SDS011;67687;43.508;1.504;2023-07-02T13:37:14;3.63;;;1.50;;
78402;SDS011;67687;43.508;1.504;2023-07-02T13:39:43;3.60;;;1.20;;
78402;SDS011;67687;43.508;1.504;2023-07-02T13:42:11;3.63;;;1.40;;
78402;SDS011;67687;43.508;1.504;2023-07-02T13:44:38;3.00;;;1.40;;
78402;SDS011;67687;43.508;1.504;2023-07-02T13:47:05;3.90;;;1.50;;
78402;SDS011;67687;43.508;1.504;2023-07-02T13:49:32;3.88;;;1.65;;
78402;SDS011;67687;43.508;1.504;2023-07-02T13:51:59;3.55;;;1.60;;
78402;SDS011;67687;43.508;1.504;2023-07-02T13:54:26;3.88;;;1.52;;
78402;SDS011;67687;43.508;1.504;2023-07-02T13:56:52;3.50;;;1.70;;
78402;SDS011;67687;43.508;1.504;2023-07-02T13:59:21;3.93;;;1.40;;
78402;SDS011;67687;43.508;1.504;2023-07-02T14:01:48;4.03;;;1.83;;
78402;SDS011;67687;43.508;1.504;2023-07-02T14:04:16;4.43;;;1.30;;
78402;SDS011;67687;43.508;1.504;2023-07-02T14:06:43;3.35;;;1.60;;
78402;SDS011;67687;43.508;1.504;2023-07-02T14:09:10;3.08;;;1.60;;
78402;SDS011;67687;43.508;1.504;2023-07-02T14:11:38;3.53;;;1.73;;
78402;SDS011;67687;43.508;1.504;2023-07-02T14:14:05;3.70;;;1.70;;
78402;SDS011;67687;43.508;1.504;2023-07-02T14:16:33;3.20;;;1.70;;
78402;SDS011;67687;43.508;1.504;2023-07-02T14:19:00;3.45;;;1.65;;
78402;SDS011;67687;43.508;1.504;2023-07-02T14:21:27;3.47;;;1.85;;
78402;SDS011;67687;43.508;1.504;2023-07-02T14:23:54;5.23;;;1.53;;
78402;SDS011;67687;43.508;1.504;2023-07-02T14:26:21;3.00;;;1.60;;
78402;SDS011;67687;43.508;1.504;2023-07-02T14:28:47;4.38;;;1.80;;
78402;SDS011;67687;43.508;1.504;2023-07-02T14:31:14;3.30;;;1.55;;
78402;SDS011;67687;43.508;1.504;2023-07-02T14:33:42;4.75;;;1.80;;
78402;SDS011;67687;43.508;1.504;2023-07-02T14:36:09;5.60;;;1.93;;
78402;SDS011;67687;43.508;1.504;2023-07-02T14:38:36;3.30;;;1.67;;
78402;SDS011;67687;43.508;1.504;2023-07-02T14:41:02;3.70;;;1.70;;
78402;SDS011;67687;43.508;1.504;2023-07-02T14:43:29;2.90;;;1.42;;
78402;SDS011;67687;43.508;1.504;2023-07-02T14:45:57;3.97;;;1.70;;
78402;SDS011;67687;43.508;1.504;2023-07-02T14:48:25;3.10;;;1.63;;
78402;SDS011;67687;43.508;1.504;2023-07-02T14:50:53;3.35;;;1.70;;
78402;SDS011;67687;43.508;1.504;2023-07-02T14:53:22;4.07;;;1.70;;
78402;SDS011;67687;43.508;1.504;2023-07-02T14:55:49;3.00;;;1.70;;
78402;SDS011;67687;43.508;1.504;2023-07-02T14:58:16;3.33;;;1.58;;
78402;SDS011;67687;43.508;1.504;2023-07-02T15:00:44;3.27;;;1.53;;
78402;SDS011;67687;43.508;1.504;2023-07-02T15:03:11;3.60;;;1.45;;
78402;SDS011;67687;43.508;1.504;2023-07-02T15:05:38;3.05;;;1.35;;
78402;SDS011;67687;43.508;1.504;2023-07-02T15:08:07;3.20;;;1.42;;
78402;SDS011;67687;43.508;1.504;2023-07-02T15:10:34;3.10;;;1.38;;
78402;SDS011;67687;43.508;1.504;2023-07-02T15:13:03;3.20;;;1.60;;
78402;SDS011;67687;43.508;1.504;2023-07-02T15:15:30;2.80;;;1.20;;
78402;SDS011;67687;43.508;1.504;2023-07-02T15:17:57;3.58;;;1.75;;
78402;SDS011;67687;43.508;1.504;2023-07-02T15:20:24;4.65;;;1.60;;
78402;SDS011;67687;43.508;1.504;2023-07-02T15:22:50;3.08;;;1.35;;
78402;SDS011;67687;43.508;1.504;2023-07-02T15:25:18;2.93;;;1.47;;
78402;SDS011;67687;43.508;1.504;2023-07-02T15:27:45;3.10;;;1.50;;
78402;SDS011;67687;43.508;1.504;2023-07-02T15:30:12;3.47;;;1.20;;
78402;SDS011;67687;43.508;1.504;2023-07-02T15:32:39;2.50;;;1.30;;
78402;SDS011;67687;43.508;1.504;2023-07-02T15:35:06;2.60;;;1.30;;
78402;SDS011;67687;43.508;1.504;2023-07-02T15:37:33;3.23;;;1.37;;
78402;SDS011;67687;43.508;1.504;2023-07-02T15:40:00;2.97;;;1.40;;
78402;SDS011;67687;43.508;1.504;2023-07-02T15:42:29;2.97;;;1.50;;
78402;SDS011;67687;43.508;1.504;2023-07-02T15:44:58;2.80;;;1.38;;
78402;SDS011;67687;43.508;1.504;2023-07-02T15:47:26;3.17;;;1.38;;
78402;SDS011;67687;43.508;1.504;2023-07-02T15:49:53;2.80;;;1.40;;
78402;SDS011;67687;43.508;1.504;2023-07-02T15:52:20;2.85;;;1.45;;
78402;SDS011;67687;43.508;1.504;2023-07-02T15:54:47;3.05;;;1.30;;
78402;SDS011;67687;43.508;1.504;2023-07-02T15:57:14;3.05;;;1.40;;
78402;SDS011;67687;43.508;1.504;2023-07-02T15:59:42;2.70;;;1.02;;
78402;SDS011;67687;43.508;1.504;2023-07-02T16:02:09;3.43;;;1.40;;
78402;SDS011;67687;43.508;1.504;2023-07-02T16:04:36;3.40;;;1.60;;
78402;SDS011;67687;43.508;1.504;2023-07-02T16:07:06;3.65;;;1.58;;
78402;SDS011;67687;43.508;1.504;2023-07-02T16:09:33;11.77;;;6.60;;
78402;SDS011;67687;43.508;1.504;2023-07-02T16:11:59;12.30;;;8.15;;
78402;SDS011;67687;43.508;1.504;2023-07-02T16:14:27;5.93;;;3.20;;
78402;SDS011;67687;43.508;1.504;2023-07-02T16:16:55;6.22;;;3.15;;
78402;SDS011;67687;43.508;1.504;2023-07-02T16:19:22;5.28;;;2.80;;
78402;SDS011;67687;43.508;1.504;2023-07-02T16:21:49;4.00;;;1.50;;
78402;SDS011;67687;43.508;1.504;2023-07-02T16:24:16;3.65;;;1.42;;
78402;SDS011;67687;43.508;1.504;2023-07-02T16:26:45;2.50;;;1.10;;
78402;SDS011;67687;43.508;1.504;2023-07-02T16:29:11;3.25;;;1.52;;
78402;SDS011;67687;43.508;1.504;2023-07-02T16:31:39;18.83;;;12.80;;
78402;SDS011;67687;43.508;1.504;2023-07-02T16:34:08;9.30;;;5.82;;
78402;SDS011;67687;43.508;1.504;2023-07-02T16:36:35;5.65;;;3.22;;
78402;SDS011;67687;43.508;1.504;2023-07-02T16:39:02;3.77;;;1.80;;
78402;SDS011;67687;43.508;1.504;2023-07-02T16:41:29;2.60;;;1.30;;
78402;SDS011;67687;43.508;1.504;2023-07-02T16:44:02;3.70;;;1.58;;
78402;SDS011;67687;43.508;1.504;2023-07-02T16:46:31;3.22;;;1.42;;
78402;SDS011;67687;43.508;1.504;2023-07-02T16:48:59;2.88;;;1.45;;
78402;SDS011;67687;43.508;1.504;2023-07-02T16:51:27;3.47;;;2.17;;
78402;SDS011;67687;43.508;1.504;2023-07-02T16:53:54;3.58;;;1.70;;
78402;SDS011;67687;43.508;1.504;2023-07-02T16:56:21;2.97;;;1.65;;
78402;SDS011;67687;43.508;1.504;2023-07-02T16:58:47;3.65;;;1.77;;
78402;SDS011;67687;43.508;1.504;2023-07-02T17:01:14;3.83;;;1.88;;
78402;SDS011;67687;43.508;1.504;2023-07-02T17:03:42;3.37;;;1.60;;
78402;SDS011;67687;43.508;1.504;2023-07-02T17:06:09;3.90;;;2.05;;
78402;SDS011;67687;43.508;1.504;2023-07-02T17:08:39;3.88;;;1.60;;
78402;SDS011;67687;43.508;1.504;2023-07-02T17:11:07;3.38;;;1.63;;
78402;SDS011;67687;43.508;1.504;2023-07-02T17:13:35;3.83;;;1.50;;
78402;SDS011;67687;43.508;1.504;2023-07-02T17:16:03;2.90;;;1.40;;
78402;SDS011;67687;43.508;1.504;2023-07-02T17:18:31;3.63;;;1.98;;
78402;SDS011;67687;43.508;1.504;2023-07-02T17:20:58;3.25;;;1.60;;
78402;SDS011;67687;43.508;1.504;2023-07-02T17:23:25;3.88;;;1.70;;
78402;SDS011;67687;43.508;1.504;2023-07-02T17:25:54;3.55;;;1.60;;
78402;SDS011;67687;43.508;1.504;2023-07-02T17:28:26;3.77;;;1.40;;
78402;SDS011;67687;43.508;1.504;2023-07-02T17:30:54;3.67;;;1.38;;
78402;SDS011;67687;43.508;1.504;2023-07-02T17:33:23;3.35;;;1.35;;
78402;SDS011;67687;43.508;1.504;2023-07-02T17:35:49;2.85;;;1.67;;
78402;SDS011;67687;43.508;1.504;2023-07-02T17:38:16;3.28;;;1.30;;
78402;SDS011;67687;43.508;1.504;2023-07-02T17:40:45;3.47;;;1.73;;
78402;SDS011;67687;43.508;1.504;2023-07-02T17:43:13;3.00;;;1.50;;
78402;SDS011;67687;43.508;1.504;2023-07-02T17:45:40;2.75;;;1.40;;
78402;SDS011;67687;43.508;1.504;2023-07-02T17:48:07;3.78;;;1.35;;
78402;SDS011;67687;43.508;1.504;2023-07-02T17:50:34;4.55;;;1.52;;
78402;SDS011;67687;43.508;1.504;2023-07-02T17:53:01;7.37;;;3.60;;
78402;SDS011;67687;43.508;1.504;2023-07-02T17:55:27;7.28;;;3.85;;
78402;SDS011;67687;43.508;1.504;2023-07-02T17:57:54;6.10;;;2.90;;
78402;SDS011;67687;43.508;1.504;2023-07-02T18:00:23;5.47;;;2.53;;
78402;SDS011;67687;43.508;1.504;2023-07-02T18:02:50;6.38;;;2.20;;
78402;SDS011;67687;43.508;1.504;2023-07-02T18:05:17;5.77;;;2.60;;
78402;SDS011;67687;43.508;1.504;2023-07-02T18:07:46;10.35;;;4.68;;
78402;SDS011;67687;43.508;1.504;2023-07-02T18:10:14;8.05;;;3.83;;
78402;SDS011;67687;43.508;1.504;2023-07-02T18:12:41;7.93;;;3.65;;
78402;SDS011;67687;43.508;1.504;2023-07-02T18:15:08;4.63;;;2.38;;
78402;SDS011;67687;43.508;1.504;2023-07-02T18:17:36;3.70;;;2.07;;
78402;SDS011;67687;43.508;1.504;2023-07-02T18:20:04;3.40;;;1.70;;
78402;SDS011;67687;43.508;1.504;2023-07-02T18:22:32;4.40;;;1.83;;
78402;SDS011;67687;43.508;1.504;2023-07-02T18:24:59;3.42;;;1.75;;
78402;SDS011;67687;43.508;1.504;2023-07-02T18:27:26;3.58;;;1.90;;
78402;SDS011;67687;43.508;1.504;2023-07-02T18:29:53;5.10;;;1.67;;
78402;SDS011;67687;43.508;1.504;2023-07-02T18:32:19;2.95;;;1.40;;
78402;SDS011;67687;43.508;1.504;2023-07-02T18:34:48;2.88;;;1.48;;
78402;SDS011;67687;43.508;1.504;2023-07-02T18:37:15;4.05;;;1.80;;
78402;SDS011;67687;43.508;1.504;2023-07-02T18:39:42;4.55;;;1.92;;
78402;SDS011;67687;43.508;1.504;2023-07-02T18:42:09;3.97;;;1.43;;
78402;SDS011;67687;43.508;1.504;2023-07-02T18:44:37;4.65;;;1.90;;
78402;SDS011;67687;43.508;1.504;2023-07-02T18:47:05;5.65;;;1.60;;
78402;SDS011;67687;43.508;1.504;2023-07-02T18:49:33;4.22;;;2.03;;
78402;SDS011;67687;43.508;1.504;2023-07-02T18:52:04;3.53;;;1.45;;
78402;SDS011;67687;43.508;1.504;2023-07-02T18:54:33;3.73;;;1.80;;
78402;SDS011;67687;43.508;1.504;2023-07-02T18:57:04;3.50;;;1.65;;
78402;SDS011;67687;43.508;1.504;2023-07-02T18:59:32;4.82;;;2.08;;
78402;SDS011;67687;43.508;1.504;2023-07-02T19:01:59;3.75;;;1.58;;
78402;SDS011;67687;43.508;1.504;2023-07-02T19:04:28;3.42;;;1.70;;
78402;SDS011;67687;43.508;1.504;2023-07-02T19:06:55;4.10;;;2.00;;
78402;SDS011;67687;43.508;1.504;2023-07-02T19:09:24;3.97;;;1.48;;
78402;SDS011;67687;43.508;1.504;2023-07-02T19:11:52;3.78;;;1.38;;
78402;SDS011;67687;43.508;1.504;2023-07-02T19:14:18;3.78;;;1.70;;
78402;SDS011;67687;43.508;1.504;2023-07-02T19:16:45;3.72;;;1.60;;
78402;SDS011;67687;43.508;1.504;2023-07-02T19:19:13;3.73;;;1.57;;
78402;SDS011;67687;43.508;1.504;2023-07-02T19:21:40;3.88;;;1.85;;
78402;SDS011;67687;43.508;1.504;2023-07-02T19:24:07;3.85;;;1.90;;
78402;SDS011;67687;43.508;1.504;2023-07-02T19:26:35;4.65;;;2.10;;
78402;SDS011;67687;43.508;1.504;2023-07-02T19:29:03;4.30;;;2.05;;
78402;SDS011;67687;43.508;1.504;2023-07-02T19:31:30;4.73;;;1.60;;
78402;SDS011;67687;43.508;1.504;2023-07-02T19:33:57;4.30;;;2.10;;
78402;SDS011;67687;43.508;1.504;2023-07-02T19:36:25;3.60;;;1.95;;
78402;SDS011;67687;43.508;1.504;2023-07-02T19:38:55;5.05;;;2.08;;
78402;SDS011;67687;43.508;1.504;2023-07-02T19:41:22;4.13;;;2.20;;
78402;SDS011;67687;43.508;1.504;2023-07-02T19:43:54;4.00;;;1.90;;
78402;SDS011;67687;43.508;1.504;2023-07-02T19:46:21;5.07;;;2.00;;
78402;SDS011;67687;43.508;1.504;2023-07-02T19:48:49;4.75;;;2.15;;
78402;SDS011;67687;43.508;1.504;2023-07-02T19:51:16;5.78;;;2.25;;
78402;SDS011;67687;43.508;1.504;2023-07-02T19:53:43;4.63;;;2.20;;
78402;SDS011;67687;43.508;1.504;2023-07-02T19:56:11;5.13;;;2.70;;
78402;SDS011;67687;43.508;1.504;2023-07-02T19:58:38;6.25;;;3.00;;
78402;SDS011;67687;43.508;1.504;2023-07-02T20:01:09;5.30;;;2.78;;
78402;SDS011;67687;43.508;1.504;2023-07-02T20:03:36;5.43;;;2.53;;
78402;SDS011;67687;43.508;1.504;2023-07-02T20:06:05;8.35;;;3.08;;
78402;SDS011;67687;43.508;1.504;2023-07-02T20:08:34;5.87;;;2.90;;
78402;SDS011;67687;43.508;1.504;2023-07-02T20:11:02;5.78;;;3.00;;
78402;SDS011;67687;43.508;1.504;2023-07-02T20:13:29;6.38;;;3.00;;
78402;SDS011;67687;43.508;1.504;2023-07-02T20:15:57;6.68;;;2.85;;
78402;SDS011;67687;43.508;1.504;2023-07-02T20:18:25;5.80;;;3.20;;
78402;SDS011;67687;43.508;1.504;2023-07-02T20:20:56;7.13;;;3.30;;
78402;SDS011;67687;43.508;1.504;2023-07-02T20:23:26;6.13;;;2.85;;
78402;SDS011;67687;43.508;1.504;2023-07-02T20:26:29;6.45;;;3.30;;
78402;SDS011;67687;43.508;1.504;2023-07-02T20:28:59;7.90;;;3.10;;
78402;SDS011;67687;43.508;1.504;2023-07-02T20:31:26;5.82;;;3.00;;
78402;SDS011;67687;43.508;1.504;2023-07-02T20:33:56;7.43;;;3.60;;
78402;SDS011;67687;43.508;1.504;2023-07-02T20:36:25;7.85;;;3.63;;
78402;SDS011;67687;43.508;1.504;2023-07-02T20:38:52;9.45;;;4.35;;
78402;SDS011;67687;43.508;1.504;2023-07-02T20:41:25;10.15;;;4.65;;
78402;SDS011;67687;43.508;1.504;2023-07-02T20:43:54;15.32;;;6.57;;
78402;SDS011;67687;43.508;1.504;2023-07-02T20:46:29;11.17;;;5.43;;
78402;SDS011;67687;43.508;1.504;2023-07-02T20:49:16;11.23;;;5.65;;
78402;SDS011;67687;43.508;1.504;2023-07-02T20:51:51;11.40;;;5.50;;
78402;SDS011;67687;43.508;1.504;2023-07-02T20:54:23;11.27;;;5.90;;
78402;SDS011;67687;43.508;1.504;2023-07-02T20:56:50;12.43;;;5.30;;
78402;SDS011;67687;43.508;1.504;2023-07-02T20:59:18;9.20;;;5.20;;
78402;SDS011;67687;43.508;1.504;2023-07-02T21:01:46;11.95;;;5.45;;
